createdAt,value
2022-11-04T00:01:21.983Z,71.36
2022-11-04T00:04:26.036Z,71.35
2022-11-04T00:07:46.306Z,71.00
2022-11-04T00:11:12.260Z,71.57
2022-11-04T00:14:15.823Z,71.50
2022-11-04T00:17:22.512Z,72.08
2022-11-04T00:20:42.724Z,71.88
2022-11-04T00:24:03.162Z,71.52
2022-11-04T00:27:24.809Z,71.62
2022-11-04T00:30:29.472Z,72.39
2022-11-04T00:33:31.237Z,72.81
2022-11-04T00:36:34.639Z,72.86
2022-11-04T00:39:37.375Z,72.92
2022-11-04T00:42:42.185Z,72.09
2022-11-04T00:45:45.236Z,72.31
2022-11-04T00:48:48.185Z,72.97
2022-11-04T00:51:51.041Z,73.57
2022-11-04T00:54:53.776Z,73.22
2022-11-04T00:57:59.076Z,72.37
2022-11-04T01:01:01.823Z,73.20
2022-11-04T01:04:04.588Z,72.94
2022-11-04T01:07:07.294Z,73.58
2022-11-04T01:10:10.740Z,73.89
2022-11-04T01:13:15.373Z,73.58
2022-11-04T01:16:18.972Z,73.11
2022-11-04T01:19:21.613Z,74.05
2022-11-04T01:22:24.318Z,73.58
2022-11-04T01:25:27.067Z,74.13
2022-11-04T01:28:31.001Z,74.17
2022-11-04T01:31:33.728Z,74.06
2022-11-04T01:34:42.239Z,74.84
2022-11-04T01:37:46.304Z,74.45
2022-11-04T01:40:49.002Z,74.37
2022-11-04T01:43:55.737Z,74.46
2022-11-04T01:46:58.461Z,74.26
2022-11-04T01:50:05.948Z,74.42
2022-11-04T01:53:14.340Z,75.08
2022-11-04T01:56:18.024Z,73.33
2022-11-04T01:59:25.641Z,74.42
2022-11-04T02:02:28.505Z,74.08
2022-11-04T02:05:32.088Z,74.47
2022-11-04T02:08:35.468Z,73.63
2022-11-04T02:11:55.680Z,74.98
2022-11-04T02:15:00.046Z,74.12
2022-11-04T02:18:30.374Z,74.14
2022-11-04T02:22:12.109Z,72.86
2022-11-04T02:25:41.032Z,73.48
2022-11-04T02:29:07.287Z,75.41
2022-11-04T02:32:16.355Z,75.30
2022-11-04T02:35:26.597Z,75.45
2022-11-04T02:38:39.804Z,75.04
2022-11-04T02:41:52.355Z,75.45
2022-11-04T02:45:07.422Z,75.79
2022-11-04T02:48:18.222Z,75.81
2022-11-04T02:51:26.632Z,76.04
2022-11-04T02:54:35.070Z,75.78
2022-11-04T02:57:41.817Z,75.76
2022-11-04T03:00:48.064Z,76.12
2022-11-04T03:03:56.557Z,76.37
2022-11-04T03:07:03.303Z,76.73
2022-11-04T03:10:12.586Z,76.97
2022-11-04T03:13:18.524Z,76.37
2022-11-04T03:16:27.792Z,76.03
2022-11-04T03:19:38.184Z,75.82
2022-11-04T03:22:41.037Z,76.04
2022-11-04T03:25:46.692Z,75.68
2022-11-04T03:29:02.725Z,76.12
2022-11-04T03:32:10.795Z,76.03
2022-11-04T03:35:15.637Z,75.91
2022-11-04T03:38:18.420Z,76.32
2022-11-04T03:41:30.024Z,76.34
2022-11-04T03:44:32.575Z,76.53
2022-11-04T03:47:37.385Z,76.15
2022-11-04T03:50:43.156Z,75.66
2022-11-04T03:53:46.000Z,75.80
2022-11-04T03:57:11.512Z,75.61
2022-11-04T04:00:16.887Z,75.10
2022-11-04T04:03:26.508Z,76.08
2022-11-04T04:06:33.396Z,76.53
2022-11-04T04:09:41.537Z,75.82
2022-11-04T04:12:44.431Z,75.35
2022-11-04T04:15:53.543Z,74.64
2022-11-04T04:19:02.038Z,75.00
2022-11-04T04:22:10.475Z,75.56
2022-11-04T04:25:33.335Z,75.95
2022-11-04T04:28:37.103Z,76.20
2022-11-04T04:31:50.913Z,76.04
2022-11-04T04:35:15.623Z,75.79
2022-11-04T04:38:39.842Z,76.20
2022-11-04T04:42:00.237Z,75.87
2022-11-04T04:45:04.659Z,75.70
2022-11-04T04:48:09.890Z,75.99
2022-11-04T04:51:14.123Z,75.35
2022-11-04T04:54:16.878Z,75.97
2022-11-04T04:57:19.629Z,75.63
2022-11-04T05:00:22.506Z,75.25
2022-11-04T05:03:25.675Z,74.70
2022-11-04T05:06:29.579Z,75.13
2022-11-04T05:09:32.291Z,75.16
2022-11-04T05:12:50.362Z,75.62
2022-11-04T05:15:53.080Z,75.97
2022-11-04T05:18:55.821Z,76.50
2022-11-04T05:21:59.758Z,75.04
2022-11-04T05:25:02.461Z,76.23
2022-11-04T05:28:05.488Z,76.48
2022-11-04T05:31:08.534Z,76.53
2022-11-04T05:34:11.981Z,75.72
2022-11-04T05:37:15.871Z,76.62
2022-11-04T05:40:18.760Z,76.09
2022-11-04T05:43:21.469Z,76.60
2022-11-04T05:46:24.385Z,76.93
2022-11-04T05:49:27.089Z,77.29
2022-11-04T05:52:31.017Z,77.52
2022-11-04T05:55:33.762Z,77.53
2022-11-04T05:58:36.587Z,77.92
2022-11-04T06:01:41.491Z,78.30
2022-11-04T06:04:44.304Z,77.84
2022-11-04T06:07:48.239Z,78.09
2022-11-04T06:10:50.914Z,78.51
2022-11-04T06:13:55.347Z,78.26
2022-11-04T06:16:57.920Z,78.73
2022-11-04T06:20:00.715Z,78.11
2022-11-04T06:23:05.153Z,77.83
2022-11-04T06:26:07.785Z,78.62
2022-11-04T06:29:10.855Z,79.04
2022-11-04T06:32:15.407Z,79.07
2022-11-04T06:35:18.257Z,78.83
2022-11-04T06:38:22.293Z,79.27
2022-11-04T06:41:24.950Z,79.16
2022-11-04T06:44:27.644Z,79.76
2022-11-04T06:47:30.225Z,80.44
2022-11-04T06:50:33.135Z,79.96
2022-11-04T06:53:37.077Z,80.42
2022-11-04T06:56:40.448Z,80.71
2022-11-04T06:59:43.061Z,81.12
2022-11-04T07:02:45.689Z,80.72
2022-11-04T07:05:48.377Z,79.90
2022-11-04T07:08:53.357Z,80.51
2022-11-04T07:11:55.926Z,80.92
2022-11-04T07:14:58.782Z,81.35
2022-11-04T07:18:01.465Z,80.98
2022-11-04T07:21:09.701Z,82.09
2022-11-04T07:24:13.980Z,81.74
2022-11-04T07:27:16.537Z,82.04
2022-11-04T07:30:20.582Z,81.94
2022-11-04T07:33:23.171Z,83.04
2022-11-04T07:36:25.912Z,82.38
2022-11-04T07:39:29.835Z,82.59
2022-11-04T07:42:32.681Z,82.14
2022-11-04T07:45:35.382Z,81.40
2022-11-04T07:48:38.314Z,82.00
2022-11-04T07:51:41.034Z,81.87
2022-11-04T07:54:45.005Z,81.95
2022-11-04T07:57:49.162Z,81.78
2022-11-04T08:00:51.762Z,82.27
2022-11-04T08:03:54.491Z,82.34
2022-11-04T08:06:57.060Z,82.23
2022-11-04T08:10:01.110Z,81.86
2022-11-04T08:13:03.710Z,82.70
2022-11-04T08:16:09.595Z,81.80
2022-11-04T08:19:12.574Z,81.41
2022-11-04T08:22:15.342Z,81.34
2022-11-04T08:25:19.292Z,81.47
2022-11-04T08:28:21.982Z,83.39
2022-11-04T08:31:26.652Z,82.57
2022-11-04T08:34:29.231Z,83.12
2022-11-04T08:37:32.053Z,83.39
2022-11-04T08:40:37.324Z,81.45
2022-11-04T08:43:40.489Z,83.89
2022-11-04T08:46:44.526Z,82.04
2022-11-04T08:49:47.261Z,83.91
2022-11-04T08:52:51.180Z,83.74
2022-11-04T08:55:55.630Z,84.93
2022-11-04T08:58:59.720Z,83.95
2022-11-04T09:02:02.493Z,84.21
2022-11-04T09:05:05.565Z,83.76
2022-11-04T09:08:08.252Z,83.15
2022-11-04T09:11:15.272Z,84.42
2022-11-04T09:14:19.096Z,83.25
2022-11-04T09:17:21.664Z,83.62
2022-11-04T09:20:24.360Z,83.38
2022-11-04T09:23:27.150Z,83.51
2022-11-04T09:26:31.184Z,84.82
2022-11-04T09:29:34.378Z,84.48
2022-11-04T09:32:36.938Z,84.57
2022-11-04T09:35:40.126Z,85.15
2022-11-04T09:38:44.865Z,84.34
2022-11-04T09:42:23.121Z,84.77
2022-11-04T09:45:28.641Z,85.16
2022-11-04T09:48:35.214Z,84.75
2022-11-04T09:51:53.874Z,86.17
2022-11-04T09:55:02.455Z,84.17
2022-11-04T09:58:08.858Z,84.06
2022-11-04T10:01:28.443Z,83.54
2022-11-04T10:04:44.440Z,84.09
2022-11-04T10:08:10.459Z,83.63
2022-11-04T10:11:20.068Z,83.81
2022-11-04T10:14:46.788Z,82.71
2022-11-04T10:18:11.574Z,83.64
2022-11-04T10:21:27.325Z,83.53
2022-11-04T10:24:41.802Z,82.54
2022-11-04T10:27:47.349Z,81.33
2022-11-04T10:30:53.219Z,82.21
2022-11-04T10:33:59.388Z,82.71
2022-11-04T10:37:03.131Z,83.32
2022-11-04T10:40:19.125Z,83.59
2022-11-04T10:43:29.711Z,83.33
2022-11-04T10:46:48.681Z,82.81
2022-11-04T10:50:28.931Z,81.37
2022-11-04T10:53:34.102Z,81.45
2022-11-04T10:56:41.335Z,80.87
2022-11-04T10:59:52.626Z,82.06
2022-11-04T11:02:56.857Z,81.43
2022-11-04T11:06:15.208Z,81.30
2022-11-04T11:09:25.906Z,81.59
2022-11-04T11:12:50.458Z,81.57
2022-11-04T11:16:06.762Z,82.55
2022-11-04T11:19:19.152Z,82.25
2022-11-04T11:22:36.291Z,82.20
2022-11-04T11:25:45.417Z,81.79
2022-11-04T11:28:59.177Z,81.61
2022-11-04T11:32:02.291Z,82.13
2022-11-04T11:35:17.141Z,81.02
2022-11-04T11:38:23.436Z,81.08
2022-11-04T11:41:31.456Z,81.22
2022-11-04T11:44:38.863Z,80.05
2022-11-04T11:47:43.725Z,80.11
2022-11-04T11:50:58.803Z,80.10
2022-11-04T11:54:24.428Z,79.65
2022-11-04T11:57:46.637Z,79.24
2022-11-04T12:01:24.033Z,79.13
2022-11-04T12:11:34.381Z,78.26
2022-11-04T12:14:49.012Z,78.86
2022-11-04T12:18:04.560Z,78.55
2022-11-04T12:21:13.796Z,79.48
2022-11-04T12:24:31.852Z,79.72
2022-11-04T12:27:40.517Z,78.84
2022-11-04T12:31:01.531Z,79.50
2022-11-04T12:34:13.314Z,80.71
2022-11-04T12:37:24.531Z,79.32
2022-11-04T12:40:32.333Z,79.89
2022-11-04T12:43:42.436Z,79.62
2022-11-04T12:46:55.112Z,78.61
2022-11-04T12:50:19.790Z,79.48
2022-11-04T12:53:45.758Z,79.06
2022-11-04T12:56:57.515Z,79.80
2022-11-04T13:00:09.415Z,80.71
2022-11-04T13:03:16.072Z,80.17
2022-11-04T13:06:22.387Z,79.55
2022-11-04T13:09:33.583Z,79.08
2022-11-04T13:12:41.764Z,80.16
2022-11-04T13:15:48.235Z,79.88
2022-11-04T13:18:51.933Z,80.08
2022-11-04T13:21:56.113Z,79.48
2022-11-04T13:25:03.928Z,79.97
2022-11-04T13:28:11.934Z,79.80
2022-11-04T13:31:23.918Z,81.13
2022-11-04T13:34:36.002Z,80.17
2022-11-04T13:37:43.071Z,80.34
2022-11-04T13:40:59.106Z,81.08
2022-11-04T13:44:13.223Z,80.86
2022-11-04T13:47:22.160Z,80.29
2022-11-04T13:50:32.594Z,80.93
2022-11-04T13:53:44.909Z,80.09
2022-11-04T13:56:47.552Z,80.44
2022-11-04T14:00:22.626Z,80.45
2022-11-04T14:03:51.467Z,80.78
2022-11-04T14:06:57.444Z,79.91
2022-11-04T14:10:00.896Z,80.22
2022-11-04T14:13:37.866Z,80.68
2022-11-04T14:16:44.121Z,81.22
2022-11-04T14:19:48.964Z,80.28
2022-11-04T14:22:54.448Z,80.49
2022-11-04T14:26:02.383Z,80.24
2022-11-04T14:29:09.581Z,80.18
2022-11-04T14:32:14.075Z,79.47
2022-11-04T14:35:19.599Z,79.18
2022-11-04T14:38:28.362Z,79.54
2022-11-04T14:41:49.696Z,79.84
2022-11-04T14:44:52.548Z,79.61
2022-11-04T14:48:02.209Z,79.84
2022-11-04T14:51:05.435Z,78.94
2022-11-04T14:54:14.330Z,79.56
2022-11-04T14:57:18.776Z,78.84
2022-11-04T15:00:34.500Z,80.43
2022-11-04T15:07:05.208Z,81.20
2022-11-04T15:10:21.739Z,81.04
2022-11-04T15:13:24.499Z,80.93
2022-11-04T15:16:31.120Z,81.88
2022-11-04T15:19:37.093Z,81.98
2022-11-04T15:22:43.621Z,81.26
2022-11-04T15:25:48.155Z,81.25
2022-11-04T15:28:52.279Z,80.81
2022-11-04T15:31:57.441Z,81.11
2022-11-04T15:35:02.119Z,81.71
2022-11-04T15:38:05.017Z,81.72
2022-11-04T15:41:25.352Z,82.20
2022-11-04T15:44:29.743Z,81.70
2022-11-04T15:47:32.419Z,81.24
2022-11-04T15:50:38.657Z,80.97
2022-11-04T15:53:50.993Z,82.37
2022-11-04T15:56:56.190Z,80.66
2022-11-04T16:00:03.134Z,81.39
2022-11-04T16:03:05.786Z,81.54
2022-11-04T16:06:10.532Z,81.01
2022-11-04T16:09:27.052Z,80.61
2022-11-04T16:12:31.553Z,82.07
2022-11-04T16:15:36.795Z,82.40
2022-11-04T16:18:42.749Z,82.28
2022-11-04T16:21:47.183Z,81.49
2022-11-04T16:24:52.977Z,81.98
2022-11-04T16:27:55.756Z,81.95
2022-11-04T16:30:59.244Z,81.56
2022-11-04T16:34:02.424Z,81.78
2022-11-04T16:37:06.481Z,81.63
2022-11-04T16:40:10.203Z,81.32
2022-11-04T16:43:14.041Z,81.09
2022-11-04T16:46:17.155Z,81.64
2022-11-04T16:49:21.814Z,81.81
2022-11-04T16:52:26.574Z,80.74
2022-11-04T16:55:30.810Z,80.67
2022-11-04T16:58:33.660Z,81.48
2022-11-04T17:01:39.881Z,80.75
2022-11-04T17:04:44.042Z,81.08
2022-11-04T17:08:00.157Z,80.87
2022-11-04T17:11:07.259Z,80.31
2022-11-04T17:14:09.969Z,80.78
2022-11-04T17:17:12.948Z,80.77
2022-11-04T17:20:18.569Z,80.89
2022-11-04T17:23:23.123Z,80.73
2022-11-04T17:26:26.155Z,80.17
2022-11-04T17:29:29.843Z,80.44
2022-11-04T17:32:32.589Z,79.75
2022-11-04T17:35:35.979Z,79.96
2022-11-04T17:38:39.980Z,79.97
2022-11-04T17:42:00.429Z,80.19
2022-11-04T17:45:03.115Z,80.41
2022-11-04T17:48:06.865Z,80.68
2022-11-04T17:51:09.951Z,80.06
2022-11-04T17:54:14.512Z,80.73
2022-11-04T17:57:17.232Z,79.44
2022-11-04T18:00:24.284Z,80.58
2022-11-04T18:03:26.923Z,80.26
2022-11-04T18:06:32.232Z,79.88
2022-11-04T18:09:36.344Z,80.53
2022-11-04T18:12:41.263Z,80.39
2022-11-04T18:15:44.371Z,80.29
2022-11-04T18:18:46.958Z,80.32
2022-11-04T18:21:51.131Z,79.96
2022-11-04T18:24:55.069Z,80.04
2022-11-04T18:27:57.818Z,80.27
2022-11-04T18:31:00.356Z,80.70
2022-11-04T18:34:05.512Z,80.51
2022-11-04T18:37:08.292Z,79.88
2022-11-04T18:40:13.251Z,80.11
2022-11-04T18:43:16.378Z,80.46
2022-11-04T18:46:19.104Z,80.36
2022-11-04T18:49:21.841Z,80.21
2022-11-04T18:52:24.389Z,80.20
2022-11-04T18:55:28.449Z,80.33
2022-11-04T18:58:34.849Z,80.66
2022-11-04T19:01:37.941Z,80.28
2022-11-04T19:04:40.552Z,80.23
2022-11-04T19:07:43.801Z,80.32
2022-11-04T19:11:00.801Z,80.54
2022-11-04T19:14:09.413Z,79.81
2022-11-04T19:17:12.632Z,80.49
2022-11-04T19:20:15.243Z,80.00
2022-11-04T19:23:18.011Z,79.84
2022-11-04T19:26:24.248Z,80.04
2022-11-04T19:29:27.103Z,80.76
2022-11-04T19:32:29.664Z,80.87
2022-11-04T19:35:32.384Z,80.21
2022-11-04T19:38:35.789Z,80.16
2022-11-04T19:41:57.450Z,79.90
2022-11-04T19:45:00.007Z,80.81
2022-11-04T19:48:02.700Z,80.81
2022-11-04T19:51:05.583Z,79.89
2022-11-04T19:54:09.642Z,80.67
2022-11-04T19:57:13.610Z,80.79
2022-11-04T20:00:16.618Z,79.98
2022-11-04T20:03:19.473Z,80.55
2022-11-04T20:06:22.454Z,80.85
2022-11-04T20:09:26.147Z,81.83
2022-11-04T20:12:47.821Z,81.43
2022-11-04T20:15:50.934Z,81.29
2022-11-04T20:18:56.907Z,81.87
2022-11-04T20:21:59.482Z,82.02
2022-11-04T20:25:02.202Z,82.00
2022-11-04T20:28:06.156Z,81.75
2022-11-04T20:31:13.221Z,81.79
2022-11-04T20:34:16.074Z,82.11
2022-11-04T20:37:18.777Z,81.40
2022-11-04T20:40:21.741Z,81.09
2022-11-04T20:43:26.141Z,81.48
2022-11-04T20:46:31.304Z,81.61
2022-11-04T20:49:33.893Z,81.17
2022-11-04T20:52:37.033Z,81.34
2022-11-04T20:55:40.685Z,81.12
2022-11-04T20:58:47.878Z,81.46
2022-11-04T21:01:51.295Z,82.71
2022-11-04T21:04:54.813Z,82.12
2022-11-04T21:07:57.485Z,81.91
2022-11-04T21:11:00.150Z,81.68
2022-11-04T21:14:06.676Z,81.42
2022-11-04T21:17:09.789Z,82.04
2022-11-04T21:20:12.814Z,82.01
2022-11-04T21:23:16.971Z,82.53
2022-11-04T21:26:23.413Z,82.56
2022-11-04T21:29:27.375Z,82.09
2022-11-04T21:32:31.241Z,82.80
2022-11-04T21:35:35.144Z,82.43
2022-11-04T21:38:37.850Z,81.96
2022-11-04T21:41:40.623Z,82.59
2022-11-04T21:44:44.543Z,82.32
2022-11-04T21:47:47.389Z,82.12
2022-11-04T21:50:49.939Z,82.21
2022-11-04T21:53:53.170Z,81.28
2022-11-04T21:56:55.739Z,82.24
2022-11-04T21:59:59.804Z,82.92
2022-11-04T22:03:02.387Z,83.02
2022-11-04T22:06:07.239Z,82.47
2022-11-04T22:09:12.418Z,82.16
2022-11-04T22:12:15.104Z,82.34
2022-11-04T22:15:35.422Z,83.49
2022-11-04T22:18:38.105Z,83.89
2022-11-04T22:21:42.539Z,82.52
2022-11-04T22:25:02.963Z,83.21
2022-11-04T22:28:06.016Z,83.13
2022-11-04T22:31:11.746Z,82.35
2022-11-04T22:34:14.499Z,82.27
2022-11-04T22:37:17.143Z,83.16
2022-11-04T22:40:19.879Z,83.21
2022-11-04T22:43:23.047Z,83.19
2022-11-04T22:46:28.666Z,82.74
2022-11-04T22:49:31.439Z,83.04
2022-11-04T22:52:34.043Z,82.95
2022-11-04T22:55:36.849Z,82.79
2022-11-04T22:58:39.819Z,84.29
2022-11-04T23:01:44.130Z,83.70
2022-11-04T23:04:46.792Z,82.99
2022-11-04T23:07:49.483Z,82.43
2022-11-04T23:11:13.578Z,82.57
2022-11-04T23:14:36.147Z,82.28
2022-11-04T23:17:58.002Z,82.17
2022-11-04T23:21:18.840Z,81.99
2022-11-04T23:24:39.135Z,82.59
2022-11-04T23:28:03.414Z,81.85
2022-11-04T23:31:06.169Z,82.99
2022-11-04T23:34:27.937Z,82.58
2022-11-04T23:37:30.484Z,82.28
2022-11-04T23:40:33.762Z,82.62
2022-11-04T23:43:36.889Z,82.68
2022-11-04T23:46:57.356Z,82.30
2022-11-04T23:50:19.116Z,82.42
2022-11-04T23:53:39.366Z,83.66
2022-11-04T23:57:17.727Z,83.33
